createdAt,value
2019-05-07T00:01:39.003Z,23.33
2019-05-07T00:04:08.595Z,18.23
2019-05-07T00:06:39.731Z,19.70
2019-05-07T00:09:09.546Z,21.48
2019-05-07T00:11:39.863Z,16.83
2019-05-07T00:14:08.444Z,25.15
2019-05-07T00:16:38.142Z,20.50
2019-05-07T00:19:06.744Z,20.82
2019-05-07T00:21:35.749Z,23.60
2019-05-07T00:24:06.877Z,22.00
2019-05-07T00:26:35.455Z,24.20
2019-05-07T00:29:05.881Z,22.10
2019-05-07T00:31:35.083Z,23.18
2019-05-07T00:34:05.300Z,22.53
2019-05-07T00:36:38.791Z,30.17
2019-05-07T00:39:18.332Z,34.60
2019-05-07T00:41:52.222Z,27.62
2019-05-07T00:44:35.062Z,18.73
2019-05-07T00:47:03.940Z,22.90
2019-05-07T00:49:33.109Z,23.95
2019-05-07T00:52:02.863Z,29.63
2019-05-07T00:54:32.583Z,29.05
2019-05-07T00:57:03.080Z,22.87
2019-05-07T00:59:32.289Z,21.52
2019-05-07T01:02:02.231Z,17.45
2019-05-07T01:04:33.176Z,16.48
2019-05-07T01:07:03.883Z,19.45
2019-05-07T01:09:32.755Z,19.90
2019-05-07T01:12:03.162Z,19.90
2019-05-07T01:14:32.517Z,20.10
2019-05-07T01:17:02.415Z,20.80
2019-05-07T01:19:32.834Z,18.62
2019-05-07T01:22:03.307Z,19.10
2019-05-07T01:24:32.417Z,21.48
2019-05-07T01:27:02.163Z,20.80
2019-05-07T01:29:32.796Z,23.80
2019-05-07T01:32:06.144Z,26.95
2019-05-07T01:34:36.204Z,21.25
2019-05-07T01:37:06.852Z,23.98
2019-05-07T01:39:35.645Z,23.63
2019-05-07T01:42:07.435Z,24.82
2019-05-07T01:44:41.887Z,18.75
2019-05-07T01:47:09.795Z,21.73
2019-05-07T01:49:38.354Z,23.22
2019-05-07T01:52:06.843Z,21.30
2019-05-07T01:54:35.962Z,19.92
2019-05-07T01:57:06.587Z,18.35
2019-05-07T01:59:35.100Z,22.98
2019-05-07T02:02:07.897Z,23.65
2019-05-07T02:04:45.485Z,26.80
2019-05-07T02:07:18.672Z,19.83
2019-05-07T02:09:49.111Z,19.03
2019-05-07T02:12:19.526Z,24.57
2019-05-07T02:14:48.538Z,17.87
2019-05-07T02:17:17.108Z,20.83
2019-05-07T02:19:45.993Z,24.50
2019-05-07T02:22:15.105Z,20.40
2019-05-07T02:24:43.670Z,22.62
2019-05-07T02:27:12.884Z,23.60
2019-05-07T02:29:43.067Z,23.70
2019-05-07T02:32:13.200Z,24.25
2019-05-07T02:34:44.196Z,24.50
2019-05-07T02:37:14.560Z,26.07
2019-05-07T02:39:47.959Z,23.40
2019-05-07T02:42:16.843Z,20.57
2019-05-07T02:45:04.498Z,21.20
2019-05-07T02:47:34.492Z,25.70
2019-05-07T02:50:05.431Z,20.88
2019-05-07T02:52:54.284Z,31.27
2019-05-07T02:55:24.710Z,27.83
2019-05-07T02:57:54.285Z,29.77
2019-05-07T03:00:33.510Z,26.87
2019-05-07T03:03:03.786Z,31.30
2019-05-07T03:05:34.916Z,28.57
2019-05-07T03:08:03.602Z,32.33
2019-05-07T03:10:34.146Z,35.75
2019-05-07T03:13:03.446Z,23.13
2019-05-07T03:15:33.599Z,24.43
2019-05-07T03:18:03.615Z,24.00
2019-05-07T03:20:35.434Z,24.77
2019-05-07T03:23:04.441Z,27.10
2019-05-07T03:25:34.828Z,24.13
2019-05-07T03:28:04.362Z,29.35
2019-05-07T03:30:36.260Z,28.13
2019-05-07T03:33:09.850Z,21.50
2019-05-07T03:35:46.585Z,29.17
2019-05-07T03:38:13.144Z,21.43
2019-05-07T03:40:44.508Z,25.57
2019-05-07T03:43:13.850Z,22.03
2019-05-07T03:45:44.277Z,21.37
2019-05-07T03:48:14.705Z,25.87
2019-05-07T03:50:43.805Z,26.57
2019-05-07T03:53:14.183Z,25.83
2019-05-07T03:55:44.545Z,28.70
2019-05-07T03:58:14.680Z,23.42
2019-05-07T04:00:44.647Z,25.27
2019-05-07T04:03:18.555Z,21.80
2019-05-07T04:05:45.337Z,30.50
2019-05-07T04:08:14.024Z,27.83
2019-05-07T04:10:44.315Z,33.63
2019-05-07T04:13:13.675Z,31.87
2019-05-07T04:15:43.989Z,30.80
2019-05-07T04:18:13.596Z,24.13
2019-05-07T04:20:43.458Z,26.70
2019-05-07T04:23:13.744Z,23.80
2019-05-07T04:25:53.437Z,27.17
2019-05-07T04:28:35.941Z,25.88
2019-05-07T04:31:06.179Z,21.37
2019-05-07T04:33:39.146Z,25.97
2019-05-07T04:36:14.192Z,25.52
2019-05-07T04:38:43.964Z,19.85
2019-05-07T04:41:13.971Z,22.52
2019-05-07T04:43:43.658Z,20.00
2019-05-07T04:46:14.477Z,20.23
2019-05-07T04:48:44.124Z,23.98
2019-05-07T04:51:15.912Z,19.23
2019-05-07T04:53:44.799Z,19.63
2019-05-07T04:56:14.067Z,22.13
2019-05-07T04:58:43.588Z,21.23
2019-05-07T05:01:14.136Z,24.67
2019-05-07T05:03:43.857Z,26.03
2019-05-07T05:06:14.384Z,24.27
2019-05-07T05:08:43.737Z,23.70
2019-05-07T05:11:13.055Z,23.12
2019-05-07T05:13:44.409Z,23.93
2019-05-07T05:16:26.018Z,19.32
2019-05-07T05:18:55.399Z,19.03
2019-05-07T05:21:41.967Z,25.53
2019-05-07T05:24:22.069Z,21.10
2019-05-07T05:26:52.569Z,16.27
2019-05-07T05:29:22.756Z,20.47
2019-05-07T05:31:52.835Z,22.50
2019-05-07T05:34:22.355Z,17.33
2019-05-07T05:36:53.196Z,19.27
2019-05-07T05:39:22.481Z,20.17
2019-05-07T05:41:53.292Z,24.63
2019-05-07T05:44:32.823Z,22.63
2019-05-07T05:47:02.400Z,19.92
2019-05-07T05:49:32.184Z,16.80
2019-05-07T05:52:02.872Z,12.93
2019-05-07T05:54:36.273Z,15.37
2019-05-07T05:57:12.227Z,13.12
2019-05-07T06:02:44.106Z,14.73
2019-05-07T06:05:33.880Z,14.60
2019-05-07T06:08:03.901Z,12.70
2019-05-07T06:10:35.447Z,17.82
2019-05-07T06:13:08.226Z,11.92
2019-05-07T06:15:55.035Z,14.23
2019-05-07T06:18:42.562Z,15.03
2019-05-07T06:21:12.717Z,14.67
2019-05-07T06:23:42.795Z,10.45
2019-05-07T06:26:12.664Z,18.70
2019-05-07T06:28:42.546Z,12.20
2019-05-07T06:31:12.650Z,15.80
2019-05-07T06:33:42.963Z,12.78
2019-05-07T06:36:12.603Z,11.68
2019-05-07T06:38:46.071Z,11.90
2019-05-07T06:41:19.255Z,12.37
2019-05-07T06:43:51.997Z,12.15
2019-05-07T06:46:20.418Z,11.93
2019-05-07T06:48:49.429Z,12.03
2019-05-07T06:51:18.296Z,10.53
2019-05-07T06:53:46.893Z,11.78
2019-05-07T06:56:15.769Z,8.53
2019-05-07T06:58:55.119Z,7.95
2019-05-07T07:01:27.886Z,14.33
2019-05-07T07:04:03.855Z,13.88
2019-05-07T07:06:34.263Z,13.90
2019-05-07T07:09:23.520Z,12.60
2019-05-07T07:12:09.125Z,14.27
2019-05-07T07:14:38.219Z,16.25
2019-05-07T07:17:06.991Z,15.78
2019-05-07T07:19:36.253Z,12.90
2019-05-07T07:22:06.915Z,11.33
2019-05-07T07:24:35.821Z,13.70
2019-05-07T07:27:06.539Z,12.08
2019-05-07T07:29:41.630Z,9.50
2019-05-07T07:32:12.754Z,8.75
2019-05-07T07:34:43.348Z,12.05
2019-05-07T07:37:15.791Z,11.87
2019-05-07T07:39:44.400Z,9.38
2019-05-07T07:42:12.980Z,15.37
2019-05-07T07:44:42.567Z,8.65
2019-05-07T07:47:13.026Z,14.68
2019-05-07T07:49:42.195Z,14.20
2019-05-07T07:52:12.211Z,11.70
2019-05-07T07:54:42.901Z,9.55
2019-05-07T07:57:15.936Z,12.37
2019-05-07T07:59:46.064Z,15.70
2019-05-07T08:02:34.302Z,11.00
2019-05-07T08:05:04.950Z,10.95
2019-05-07T08:07:33.819Z,9.27
2019-05-07T08:10:02.916Z,6.90
2019-05-07T08:12:32.505Z,6.83
2019-05-07T08:15:14.780Z,8.08
2019-05-07T08:17:32.636Z,5.97
2019-05-07T08:20:02.524Z,9.33
2019-05-07T08:22:32.995Z,5.15
2019-05-07T08:25:03.311Z,6.37
2019-05-07T08:27:33.332Z,7.25
2019-05-07T08:30:02.991Z,7.43
2019-05-07T08:32:45.953Z,5.35
2019-05-07T08:35:19.348Z,7.23
2019-05-07T08:37:47.948Z,8.43
2019-05-07T08:40:16.921Z,9.43
2019-05-07T08:42:45.512Z,4.47
2019-05-07T08:45:32.681Z,7.87
2019-05-07T08:50:32.620Z,5.50
2019-05-07T08:53:02.796Z,5.65
2019-05-07T08:55:32.221Z,7.78
2019-05-07T08:58:02.233Z,7.58
2019-05-07T09:00:32.730Z,7.95
2019-05-07T09:03:01.916Z,6.92
2019-05-07T09:05:32.289Z,5.90
2019-05-07T09:08:02.254Z,8.40
2019-05-07T09:10:32.514Z,7.72
2019-05-07T09:13:02.732Z,7.40
2019-05-07T09:15:32.115Z,7.70
2019-05-07T09:18:02.020Z,10.88
2019-05-07T09:20:32.175Z,9.45
2019-05-07T09:23:02.119Z,8.10
2019-05-07T09:25:32.767Z,7.13
2019-05-07T09:28:02.646Z,8.10
2019-05-07T09:30:52.665Z,6.85
2019-05-07T09:33:26.164Z,6.87
2019-05-07T09:35:55.157Z,6.65
2019-05-07T09:38:23.735Z,10.77
2019-05-07T09:40:52.553Z,7.35
2019-05-07T09:43:22.027Z,10.00
2019-05-07T09:45:52.364Z,6.60
2019-05-07T09:48:22.130Z,9.38
2019-05-07T09:50:53.056Z,7.90
2019-05-07T09:53:22.814Z,7.90
2019-05-07T09:55:52.199Z,8.13
2019-05-07T09:58:35.026Z,7.58
2019-05-07T10:00:52.228Z,7.65
2019-05-07T10:03:22.691Z,12.47
2019-05-07T10:05:51.892Z,8.25
2019-05-07T10:08:20.970Z,8.97
2019-05-07T10:10:53.035Z,7.37
2019-05-07T10:13:32.993Z,9.10
2019-05-07T10:16:04.337Z,10.23
2019-05-07T10:18:32.482Z,5.62
2019-05-07T10:21:02.523Z,10.93
2019-05-07T10:23:31.914Z,9.40
2019-05-07T10:26:01.795Z,10.68
2019-05-07T10:28:32.058Z,9.75
2019-05-07T10:31:00.923Z,8.80
2019-05-07T10:33:31.767Z,10.53
2019-05-07T10:36:01.933Z,6.55
2019-05-07T10:38:30.680Z,8.08
2019-05-07T10:40:59.467Z,7.03
2019-05-07T10:43:28.267Z,12.58
2019-05-07T10:46:02.408Z,6.67
2019-05-07T10:48:39.242Z,4.90
2019-05-07T10:51:08.115Z,7.65
2019-05-07T10:53:37.007Z,6.75
2019-05-07T10:56:07.226Z,11.55
2019-05-07T10:58:35.804Z,13.53
2019-05-07T11:01:06.634Z,5.33
2019-05-07T11:03:35.524Z,11.00
2019-05-07T11:06:04.828Z,12.47
2019-05-07T11:08:34.027Z,10.18
2019-05-07T11:11:03.319Z,5.90
2019-05-07T11:13:32.639Z,7.92
2019-05-07T11:16:11.632Z,8.80
2019-05-07T11:18:45.656Z,7.65
2019-05-07T11:21:14.443Z,7.00
2019-05-07T11:23:43.026Z,8.85
2019-05-07T11:26:11.920Z,10.10
2019-05-07T11:28:40.601Z,6.72
2019-05-07T11:31:09.487Z,7.68
2019-05-07T11:33:38.783Z,8.13
2019-05-07T11:36:07.567Z,8.20
2019-05-07T11:38:36.152Z,9.90
2019-05-07T11:41:06.068Z,8.40
2019-05-07T11:43:48.268Z,8.88
2019-05-07T11:46:27.257Z,7.90
2019-05-07T11:49:03.963Z,6.90
2019-05-07T11:51:34.515Z,9.57
2019-05-07T11:54:12.403Z,8.55
2019-05-07T11:56:42.262Z,5.45
2019-05-07T11:59:13.122Z,8.80
2019-05-07T12:01:47.210Z,9.40
2019-05-07T12:04:13.584Z,7.70
2019-05-07T12:06:42.286Z,9.58
2019-05-07T12:09:12.143Z,7.80
2019-05-07T12:11:42.533Z,7.07
2019-05-07T12:14:12.391Z,9.80
2019-05-07T12:16:42.589Z,5.53
2019-05-07T12:19:12.678Z,10.08
2019-05-07T12:21:42.323Z,10.03
2019-05-07T12:24:12.538Z,9.33
2019-05-07T12:26:42.290Z,9.67
2019-05-07T12:29:11.835Z,6.40
2019-05-07T12:31:42.541Z,6.67
2019-05-07T12:34:25.051Z,5.53
2019-05-07T12:36:53.920Z,12.53
2019-05-07T12:39:22.710Z,7.80
2019-05-07T12:41:52.480Z,6.97
2019-05-07T12:44:22.203Z,8.17
2019-05-07T12:46:52.496Z,7.80
2019-05-07T12:49:22.244Z,7.60
2019-05-07T12:51:58.235Z,8.75
2019-05-07T12:54:42.061Z,6.08
2019-05-07T12:57:11.791Z,7.55
2019-05-07T12:59:42.552Z,8.43
2019-05-07T13:02:33.209Z,4.90
2019-05-07T13:07:17.686Z,8.73
2019-05-07T13:09:46.866Z,7.33
2019-05-07T13:12:16.465Z,7.87
2019-05-07T13:14:45.574Z,8.10
2019-05-07T13:17:14.344Z,5.43
2019-05-07T13:19:43.232Z,12.77
2019-05-07T13:22:13.026Z,6.63
2019-05-07T13:24:42.527Z,5.93
2019-05-07T13:27:12.890Z,7.60
2019-05-07T13:29:42.514Z,5.25
2019-05-07T13:32:13.207Z,9.63
2019-05-07T13:34:42.679Z,6.80
2019-05-07T13:37:15.800Z,6.27
2019-05-07T13:39:46.604Z,6.67
2019-05-07T13:42:33.037Z,10.63
2019-05-07T13:45:07.452Z,5.17
2019-05-07T13:47:37.166Z,9.80
2019-05-07T13:50:08.112Z,8.70
2019-05-07T13:52:38.647Z,8.68
2019-05-07T13:55:07.830Z,6.95
2019-05-07T13:57:36.712Z,5.65
2019-05-07T14:00:09.533Z,4.12
2019-05-07T14:02:42.086Z,7.37
2019-05-07T14:05:14.020Z,10.63
2019-05-07T14:07:42.935Z,8.45
2019-05-07T14:10:12.579Z,5.80
2019-05-07T14:12:42.587Z,6.63
2019-05-07T14:15:12.562Z,9.03
2019-05-07T14:17:41.889Z,7.55
2019-05-07T14:20:12.740Z,7.37
2019-05-07T14:22:42.533Z,11.18
2019-05-07T14:25:11.900Z,7.47
2019-05-07T14:27:42.689Z,8.10
2019-05-07T14:30:12.999Z,8.33
2019-05-07T14:32:55.367Z,6.40
2019-05-07T14:35:28.656Z,7.63
2019-05-07T14:37:59.180Z,6.35
2019-05-07T14:40:28.171Z,7.50
2019-05-07T14:42:58.925Z,9.78
2019-05-07T14:45:28.122Z,11.85
2019-05-07T14:47:56.687Z,10.65
2019-05-07T14:50:25.268Z,8.30
2019-05-07T14:52:55.256Z,7.75
2019-05-07T14:55:24.176Z,7.73
2019-05-07T14:57:53.182Z,5.23
2019-05-07T15:00:31.197Z,9.20
2019-05-07T15:03:01.789Z,6.75
2019-05-07T15:05:36.063Z,12.03
2019-05-07T15:08:10.925Z,14.22
2019-05-07T15:10:37.596Z,8.28
2019-05-07T15:13:06.773Z,9.58
2019-05-07T15:15:35.477Z,6.10
2019-05-07T15:18:09.204Z,8.00
2019-05-07T15:20:38.121Z,6.72
2019-05-07T15:23:13.172Z,13.10
2019-05-07T15:25:41.760Z,7.20
2019-05-07T15:28:12.277Z,8.60
2019-05-07T15:30:45.687Z,7.87
2019-05-07T15:33:16.404Z,8.47
2019-05-07T15:35:45.124Z,6.08
2019-05-07T15:38:15.447Z,5.00
2019-05-07T15:40:44.566Z,6.73
2019-05-07T15:43:13.213Z,7.33
2019-05-07T15:45:42.012Z,7.20
2019-05-07T15:48:12.706Z,6.10
2019-05-07T15:50:42.861Z,6.95
2019-05-07T15:53:15.936Z,6.73
2019-05-07T15:55:44.823Z,10.40
2019-05-07T15:58:13.830Z,10.78
2019-05-07T16:00:42.724Z,12.43
2019-05-07T16:03:13.222Z,6.60
2019-05-07T16:05:43.775Z,9.53
2019-05-07T16:08:13.764Z,5.43
2019-05-07T16:10:44.518Z,11.20
2019-05-07T16:13:14.824Z,7.30
2019-05-07T16:15:43.406Z,7.58
2019-05-07T16:18:14.058Z,8.23
2019-05-07T16:20:43.000Z,8.00
2019-05-07T16:23:15.700Z,5.28
2019-05-07T16:25:42.315Z,7.58
2019-05-07T16:28:12.753Z,6.40
2019-05-07T16:30:42.673Z,5.12
2019-05-07T16:33:13.236Z,6.83
2019-05-07T16:35:42.546Z,4.93
2019-05-07T16:38:14.502Z,5.10
2019-05-07T16:40:42.930Z,5.40
2019-05-07T16:43:12.198Z,5.83
2019-05-07T16:45:42.426Z,6.30
2019-05-07T16:48:12.921Z,7.90
2019-05-07T16:50:41.479Z,11.88
2019-05-07T16:53:12.213Z,7.87
2019-05-07T16:55:42.850Z,8.23
2019-05-07T16:58:15.211Z,7.75
2019-05-07T17:00:48.589Z,9.83
2019-05-07T17:03:19.151Z,8.13
2019-05-07T17:05:48.184Z,9.20
2019-05-07T17:08:18.747Z,6.87
2019-05-07T17:10:47.866Z,9.70
2019-05-07T17:13:21.626Z,6.65
2019-05-07T17:15:55.961Z,6.53
2019-05-07T17:18:27.848Z,7.10
2019-05-07T17:20:59.042Z,7.17
2019-05-07T17:26:08.464Z,7.70
2019-05-07T17:28:39.156Z,6.90
2019-05-07T17:49:32.774Z,14.50
2019-05-07T17:52:10.605Z,8.93
2019-05-07T18:30:46.374Z,5.43
2019-05-07T18:36:36.603Z,4.70
2019-05-07T18:39:06.669Z,5.37
2019-05-07T18:41:35.630Z,6.28
2019-05-07T18:44:12.456Z,4.73
2019-05-07T18:46:36.250Z,8.10
2019-05-07T18:49:06.882Z,5.60
2019-05-07T18:51:36.255Z,3.52
2019-05-07T18:54:05.868Z,6.28
2019-05-07T18:56:34.602Z,4.42
2019-05-07T18:59:04.568Z,5.22
2019-05-07T19:01:34.231Z,7.00
2019-05-07T19:04:17.721Z,7.07
2019-05-07T19:06:47.194Z,8.03
2019-05-07T19:09:22.288Z,6.93
2019-05-07T19:11:53.598Z,6.87
2019-05-07T19:14:22.928Z,8.15
2019-05-07T19:16:53.029Z,5.92
2019-05-07T19:19:22.329Z,7.40
2019-05-07T19:21:53.058Z,6.33
2019-05-07T19:24:25.670Z,6.60
2019-05-07T19:26:52.992Z,7.70
2019-05-07T19:29:23.292Z,8.17
2019-05-07T19:31:52.647Z,10.50
2019-05-07T19:34:22.104Z,11.57
2019-05-07T19:39:29.599Z,10.43
2019-05-07T19:41:59.046Z,10.53
2019-05-07T19:44:28.392Z,8.95
2019-05-07T19:46:57.544Z,7.67
2019-05-07T19:49:28.282Z,8.40
2019-05-07T19:51:57.974Z,7.07
2019-05-07T19:54:28.401Z,6.37
2019-05-07T19:56:57.201Z,6.85
2019-05-07T19:59:26.754Z,9.28
2019-05-07T20:01:57.558Z,9.93
2019-05-07T20:04:26.630Z,7.17
2019-05-07T20:06:56.166Z,7.63
2019-05-07T20:09:27.904Z,8.13
2019-05-07T20:11:58.513Z,8.63
2019-05-07T20:14:27.299Z,6.72
2019-05-07T20:16:57.760Z,8.00
2019-05-07T20:19:26.683Z,9.35
2019-05-07T20:21:56.848Z,6.40
2019-05-07T20:24:27.308Z,8.17
2019-05-07T20:26:56.394Z,12.40
2019-05-07T20:29:27.098Z,9.43
2019-05-07T20:31:55.983Z,10.45
2019-05-07T20:34:27.325Z,9.33
2019-05-07T20:36:55.290Z,9.10
2019-05-07T20:39:24.092Z,10.00
2019-05-07T20:41:52.986Z,8.60
2019-05-07T20:44:22.151Z,7.08
2019-05-07T20:46:50.858Z,9.53
2019-05-07T20:49:22.162Z,7.80
2019-05-07T20:51:52.501Z,7.70
2019-05-07T20:54:25.101Z,8.20
2019-05-07T20:57:04.637Z,8.25
2019-05-07T20:59:33.826Z,12.85
2019-05-07T21:02:03.248Z,10.48
2019-05-07T21:04:33.113Z,9.50
2019-05-07T21:07:02.480Z,10.57
2019-05-07T21:09:33.038Z,9.05
2019-05-07T21:12:01.759Z,7.58
2019-05-07T21:14:32.431Z,9.65
2019-05-07T21:17:00.732Z,9.75
2019-05-07T21:19:29.937Z,10.05
2019-05-07T21:21:58.532Z,8.48
2019-05-07T21:24:27.390Z,11.60
2019-05-07T21:26:56.308Z,8.80
2019-05-07T21:29:25.147Z,8.80
2019-05-07T21:31:53.717Z,10.50
2019-05-07T21:34:23.006Z,6.90
2019-05-07T21:36:53.228Z,8.40
2019-05-07T21:39:22.431Z,7.23
2019-05-07T21:41:53.674Z,6.35
2019-05-07T21:44:25.170Z,7.87
2019-05-07T21:46:53.018Z,10.13
2019-05-07T21:49:22.745Z,8.85
2019-05-07T21:51:52.274Z,6.50
2019-05-07T21:54:36.197Z,9.05
2019-05-07T21:57:17.663Z,9.52
2019-05-07T21:59:46.466Z,9.25
2019-05-07T22:02:16.514Z,8.17
2019-05-07T22:04:45.069Z,9.05
2019-05-07T22:07:15.004Z,11.80
2019-05-07T22:09:44.169Z,13.45
2019-05-07T22:12:13.333Z,10.18
2019-05-07T22:14:42.264Z,11.12
2019-05-07T22:17:13.049Z,8.60
2019-05-07T22:19:42.690Z,14.07
2019-05-07T22:22:12.505Z,11.83
2019-05-07T22:24:42.602Z,8.87
2019-05-07T22:27:12.863Z,10.88
2019-05-07T22:29:41.762Z,8.30
2019-05-07T22:32:12.269Z,9.63
2019-05-07T22:34:45.908Z,8.13
2019-05-07T22:37:18.038Z,12.50
2019-05-07T22:40:07.199Z,9.86
2019-05-07T22:42:37.886Z,12.78
2019-05-07T22:45:12.095Z,11.43
2019-05-07T22:47:42.119Z,8.68
2019-05-07T22:50:12.111Z,10.38
2019-05-07T22:52:40.987Z,14.07
2019-05-07T22:55:13.984Z,12.75
2019-05-07T22:57:58.710Z,11.53
2019-05-07T23:00:32.785Z,12.28
2019-05-07T23:03:02.739Z,9.73
2019-05-07T23:05:32.514Z,11.25
2019-05-07T23:08:02.365Z,10.55
2019-05-07T23:10:33.264Z,10.20
2019-05-07T23:13:02.295Z,11.12
2019-05-07T23:15:32.191Z,12.15
2019-05-07T23:18:04.220Z,9.33
2019-05-07T23:20:32.124Z,12.28
2019-05-07T23:23:01.525Z,11.22
2019-05-07T23:25:32.083Z,11.55
2019-05-07T23:28:04.866Z,12.53
2019-05-07T23:30:32.968Z,9.83
2019-05-07T23:33:02.398Z,10.50
2019-05-07T23:35:32.876Z,11.38
2019-05-07T23:38:02.474Z,11.03
2019-05-07T23:40:41.768Z,10.53
2019-05-07T23:43:14.349Z,12.18
2019-05-07T23:45:43.953Z,14.58
2019-05-07T23:48:12.741Z,13.90
2019-05-07T23:50:41.851Z,12.00
2019-05-07T23:53:12.908Z,10.77
2019-05-07T23:55:42.441Z,13.05
2019-05-07T23:58:13.845Z,12.05
